Tuesday, January 16, 2018, 6:54 AM EST
Back to Local

KBAF, Westfield Barnes Municipal

Location: Westfield, MA, United States Lat: 42.167
Local Time: 6:54 AM EST (11:54 GMT) Lon: -72.717
Time Zone: US/Eastern Elev: 272 ft

Show me the last for .
Show Coded

Time T Td Feel RH Dir Speed Gust Alt SLP Vis Weather Sky Remarks
2018-01-16 05:53 20 8 15 59 10° 3 - 30.49 30.52 10 OVC025 None
2018-01-16 04:53 20 8 13 59 340° 5 - 30.49 30.52 10 OVC027 None
2018-01-16 04:12 20 9 15 61 350° 3 - 30.49 - 10 BKN029 OVC044 None
2018-01-16 03:53 20 8 13 59 340° 5 - 30.49 30.52 10 FEW030 OVC045 None
2018-01-16 02:53 20 8 12 59 340° 6 - 30.50 30.52 10 BKN047 None
2018-01-16 01:53 20 7 12 56 360° 6 - 30.49 30.52 10 OVC030 None
2018-01-16 00:53 20 8 11 59 10° 7 - 30.49 30.52 10 OVC032 6-hr Min Temp (1am): 19.9°F
6-hr Max Temp (1am): 21.0°F
2018-01-15 23:53 20 7 12 56 360° 6 - 30.50 30.53 10 OVC034 24-hr Min Temp (12am): 9.0°F
24-hr Max Temp (12am): 21.0°F
2018-01-15 22:53 20 7 11 56 10° 7 - 30.52 30.55 10 OVC034 None
2018-01-15 21:53 21 6 12 51 360° 7 - 30.54 30.57 10 OVC033 None
2018-01-15 20:53 21 3 11 44 10° 8 - 30.55 30.58 10 OVC033 None
2018-01-15 19:53 21 3 12 44 360° 7 - 30.55 30.58 10 FEW021 OVC035 None
2018-01-15 19:42 21 3 12 44 10° 7 - 30.55 - 10 SCT021 OVC035 None
2018-01-15 18:53 21 2 11 42 360° 8 - 30.57 30.60 10 OVC022 6-hr Min Temp (7pm): 19.9°F
6-hr Max Temp (7pm): 21.0°F
2018-01-15 17:53 21 2 11 42 360° 8 - 30.58 30.61 10 OVC023 None
2018-01-15 16:53 20 2 9 44 10° 9 - 30.57 30.60 10 OVC022 None
2018-01-15 15:53 20 1 10 42 20° 8 - 30.58 30.61 10 OVC023 None
2018-01-15 14:53 20 3 10 47 40° 8 - 30.58 30.61 10 OVC025 None
2018-01-15 13:53 21 7 12 53 40° 7 - 30.59 30.62 10 OVC023 None
2018-01-15 12:53 20 6 10 54 10° 8 - 30.61 30.64 10 OVC028 Pressure falling rapidly
6-hr Min Temp (1pm): 9.0°F
6-hr Max Temp (1pm): 19.9°F
2018-01-15 12:20 20 6 7 54 360° 14 - 30.63 - 10 BKN026 None
2018-01-15 11:53 20 5 9 51 10° 10 - 30.66 30.69 10 CLR None
2018-01-15 10:53 17 2 6 50 30° 9 - 30.72 30.75 10 FEW026 None
2018-01-15 09:53 13 0 2 55 30° 8 - 30.75 30.78 10 BKN033 None
2018-01-15 08:53 11 -1 -3 57 30° 10 - 30.75 30.79 10 OVC031 None
2018-01-15 07:53 9 -2 -4 60 10° 9 - 30.74 30.77 10 SCT032 None

Support USWX by starting your Amazon purchase here.